Terminal Aerodrome Forecast
Issued by NWS

Home | Current Version | Previous Version | Text Only | Print | Product List | Glossary On
Versions: 1 2 3 4 5 6 7 8 9 10 11 12 13 14 15 16 17
000
FTUS41 KBOX 221837 AAB
TAFACK
TAF AMD
KACK 221837Z 2219/2318 23007KT P6SM FEW200
     FM230000 18006KT P6SM SCT050 BKN150
     FM230400 17005KT 3SM BR SCT025
     FM230600 16005KT 3SM BR BKN030
     FM230800 16004KT 3/4SM BR BKN008
     FM231100 16005KT 1SM BR BKN010
     FM231300 17009KT P6SM SCT015 BKN080
     FM231500 17009KT P6SM SCT120=

USA.gov is the U.S. government's official web portal to all federal, state and local government web resources and services.